WEATHER DATA

YESTERDAY
Time Temp. Dewp. Hum. Wind dir Wind speed Wind gust Bar.
00:17 -0.8 -3.9 77 270 0.3 0.8 1006.7
00:27 -0.9 -4 77 270 0.3 0.8 1006.5
00:37 -0.9 -4 77 341 0.3 1.1 1006.5
00:47 -1 -4.1 77 341 0.3 1.1 1006.5
00:57 -1 -4.1 77 341 0.3 1.1 1006.3
01:08 -1 -4.1 77 0 0 1006.2
01:17 -1.1 -4.1 78 0 0 1006.1
01:20 -1.1 -4.1 78 341 0.3 1.1 1006.1
01:32 -1.2 -4.2 78 270 0.3 1.1 1006
01:42 -1.3 -4.3 78 270 0.3 1.1 1005.8
01:51 -1.3 -4.3 78 270 0.3 0.8 1005.8
02:01 -1.4 -4.4 78 270 0.3 1.1 1005.8
02:12 -1.5 -4.5 78 270 0.3 1.1 1006
02:22 -1.6 -4.5 78 270 0.3 0.8 1005.9
02:32 -1.7 -4.6 78 270 0.3 1.1 1006
02:42 -1.7 -4.6 78 270 0.3 1.1 1005.8
02:52 -1.7 -4.6 78 270 0.3 1.1 1005.6
03:02 -1.6 -4.4 79 270 0.3 0.8 1005.5
03:12 -1.5 -4.3 79 270 0.3 0.8 1005.7
03:23 -1.4 -4.2 79 270 0.3 0.8 1005.6
03:33 -1.2 -4 79 45 0.3 0.8 1005.6
03:43 -1 -3.7 80 90 0.3 0.8 1005.5
03:53 -0.9 -3.6 80 0 0.3 1005.5
04:03 -0.7 -3.4 80 90 0.3 1.1 1005.4
04:13 -0.6 -3.3 80 315 0.3 0.8 1005.4
04:23 -0.6 -3.4 79 270 0.3 0.8 1005.3
04:34 -0.6 -3.4 79 270 0.3 0.8 1005.3
04:44 -0.6 -3.4 79 323 0.3 0.8 1005.1
04:54 -0.5 -3.2 80 14 0.3 0.8 1004.9
05:03 -0.4 -3.1 80 90 0.3 0.8 1004.9
05:14 -0.4 -3.1 80 45 0.3 0.8 1005
05:24 -0.4 -3.1 80 341 0.3 0.8 1005
05:34 -0.4 -3.1 80 0 0.8 1005
05:44 -0.3 -3 80 30 0.3 0.8 1005.2
05:55 -0.3 -3 80 0 0.8 1005.3
06:04 -0.3 -3 80 0 0.3 1005.3
06:14 -0.3 -3 80 270 0.3 0.8 1005.4
06:25 -0.4 -3.1 80 315 0.3 1.1 1005.4
06:35 -0.4 -3.1 80 330 0.3 0.8 1005.7
06:45 -0.5 -3.2 80 270 0.3 1.1 1005.5
06:55 -0.5 -3.2 80 270 0.3 0.8 1005.5
07:05 -0.5 -3.2 80 270 0.3 0.8 1005.5
07:15 -0.5 -3.2 80 270 0.3 0.8 1005.5
07:25 -0.5 -3.2 80 0 0 1005.5
07:36 -0.3 -2.8 81 0 0 1005.5
07:42 -0.3 -2.8 81 270 0.3 0.8 1005.6
07:53 -0.2 -2.7 81 45 0.3 1.1 1005.6
08:03 0 -2.5 81 90 0.3 0.8 1005.8
08:12 0.2 -2.4 81 90 0.3 0.8 1005.9
08:23 0.6 -1.9 82 90 0.3 0.8 1005.9
08:33 0.9 -1.6 82 71 0.8 2.5 1005.7
08:43 1.9 -0.5 84 270 1.1 3.9 1005.5
08:53 3.3 1 85 275 1.7 5 1005.6
09:03 4.4 1.9 84 275 1.7 5 1005.6
09:13 5.2 2.6 83 275 1.7 5 1005.6
09:23 5.7 2.7 81 0 0 1005.6
09:33 6.2 3.2 81 0 0 1005.6
09:45 6.8 3.6 80 275 1.7 5 1005.7
09:56 7.3 4.1 80 270 3.6 8.1 1005.9
10:06 7.9 4.7 80 274 4.2 7.8 1005.9
10:15 8.5 5.1 79 264 4.7 9.4 1006
10:26 9 5.6 79 270 3.9 9.4 1006.1
10:36 9.4 5.8 78 255 4.7 10.6 1005.9
10:46 9.6 5.6 76 259 4.2 10 1005.9
10:52 9.6 5.6 76 287 2.5 8.9 1005.9
11:02 9.8 5.8 76 290 2.8 5.6 1005.8
11:13 10 5.8 75 290 2.8 5.6 1005.8
11:23 10 5.8 75 290 2.8 5.6 1005.9
11:33 10.2 6 75 0 0 1005.9
11:43 10.4 6.2 75 0 0 1005.7
11:53 10.6 6.2 74 0 0 1005.7
12:03 10.7 6.1 73 0 0 1005.5
12:13 10.8 6.2 73 0 0 1005.4
12:24 10.9 6.3 73 0 0 1005.3
12:33 10.9 6.1 72 290 2.8 5.6 1005.2
12:43 10.9 6.1 72 270 2.8 6.7 1005.1
12:53 11 6.2 72 259 2.5 5 1005
13:03 11 6.2 72 263 2.5 6.1 1004.9
13:13 11 6.2 72 247 2.2 4.2 1004.7
13:23 11.1 6 71 247 2.2 4.2 1004.7
13:34 11.1 6 71 247 2.2 4.2 1004.7
13:44 11.2 6.1 71 0 0 1004.4
13:56 11.3 6.2 71 247 2.2 4.2 1004.2
14:06 11.2 5.9 70 264 1.4 3.1 1004.1
14:15 11.2 5.9 70 270 1.4 3.1 1004.2
14:26 11.2 5.9 70 254 1.4 3.1 1004.1
14:36 11.2 5.7 69 254 1.4 3.1 1004
14:46 11.1 5.6 69 254 1.4 3.1 1004
14:56 11 5.3 68 0 0 1004
15:06 10.8 5.1 68 0 0 1004.1
15:17 10.5 4.9 68 254 1.4 3.1 1004.1
15:27 10.2 4.4 67 26 0.8 1.7 1004.2
15:32 10.2 4.4 67 135 0.8 1.7 1004.1
15:53 9.6 3.8 67 135 0.8 1.7 1004.1
16:03 9.3 3.5 67 0 0 1004.2
16:14 8.9 2.9 66 0 0 1004.2
16:24 8.5 2.7 67 0 0 1004.1
16:33 8.2 2.4 67 26 0.3 2.5 1004.1
16:44 7.9 2.2 67 270 0.3 1.1 1004.1
16:54 7.3 1.4 66 270 0.8 1.4 1004.1
17:04 6.6 0.7 66 270 0.8 1.1 1004.1
17:14 6 0.1 66 270 0.3 1.1 1004.1
17:24 5.4 -0.2 67 270 0.3 1.1 1004
17:34 4.8 -0.7 67 270 0.3 1.1 1004.1
17:44 4.2 -1.2 67 270 0.3 1.1 1004.2
17:52 3.9 -1.3 68 270 0.3 1.1 1004.2
18:02 3.4 -1.7 68 270 0.8 1.4 1004.1
18:14 2.9 -2 69 270 0.8 1.4 1004.2
18:24 2.6 -2.2 69 270 0.8 1.4 1004.2
18:34 2.3 -2.3 70 270 0.8 1.4 1004.2
18:44 2.2 -2.2 71 270 0.8 1.4 1004.2
18:54 2.2 -2.2 71 0 0 1004.1
19:04 2.3 -2 72 0 0 1004.1
19:14 2.5 -1.6 73 0 0 1004.2
19:24 2.6 -1.5 73 0 0 1004.7
19:35 2.6 -1.5 73 0 0 1004.9
19:45 2.6 -1.5 73 0 0 1004.9
19:54 2.6 -1.5 73 0 0 1005
20:04 2.5 -1.6 73 0 0 1005.1
20:15 2.5 -1.6 73 0 0 1005
20:25 2.5 -1.6 73 0 0 1005
20:35 2.7 -1.3 74 0 0 1005
20:45 3.5 -0.3 76 0 0 1005.1
20:55 4.5 0.8 77 0 0 1005.1
21:05 5.4 1.5 76 0 0 1005.2
21:15 5.9 2 76 0 0 1005.3
21:26 6.4 2.3 75 0 0 1005.4
21:35 6.6 2.5 75 0 0 1005.5
21:45 7.1 3 75 0 0 1005.6
21:54 7.3 3 74 270 0.8 1.4 1005.6
22:04 7.4 3.1 74 281 0.8 5.3 1005.7
22:13 7.4 2.9 73 294 1.4 5.6 1005.5
22:20 7.4 2.9 73 278 1.7 7.8 1005.5
22:31 7.2 2.7 73 270 1.7 7.8 1005.6
22:41 7.1 2.6 73 270 1.7 7.8 1005.5
22:51 7 2.5 73 270 1.7 7.8 1005.5
23:00 7 2.5 73 0 0 1005.6
23:11 7 2.5 73 0 0 1005.7
23:21 7 2.5 73 0 0 1005.7
23:31 7 2.5 73 0 0 1005.7
23:41 7 2.3 72 0 0 1005.7
23:51 7 2.3 72 0 0 1005.7

DAY STATISTIC

2019-01-17
TEMPERATURE
AVERAGE
4.4
HIGH
11.3
13:56
LOW
-1.7
02:32
PRESSURE
AVERAGE
1005.2
HIGH
1006.7
00:17
LOW
1004.0
14:36
DEWPOINT
AVERAGE
0.5
HIGH
6.3
12:24
LOW
-4.6
02:32
HUMIDITY
AVERAGE
75
HIGH
85
08:53
LOW
66
16:14
WIND SPEED
AVERAGE
0.7
HIGH
4.7
10:15
WIND GUST
AVERAGE
1.9
HIGH
10.6
10:36
WIND DIRECTION
PREVAILING
W
66%
N
6.0
NE
6.0
E
7.0
SE
2.0
S
0.0
SW
4.0
W
66.0
NW
5.0
TEMPERATURE (°C)
LOW
-1.7
HIGH
11.3
AVERAGE
4.4
PRESSURE (hpa)
LOW
1004.0
HIGH
1006.7
AVERAGE
1005.2
DEVICE